createdAt,value
2023-04-23T00:00:48.310Z,4.76
2023-04-23T00:01:48.278Z,4.43
2023-04-23T00:02:48.465Z,4.25
2023-04-23T00:03:48.600Z,3.73
2023-04-23T00:04:48.470Z,3.39
2023-04-23T00:05:48.402Z,3.61
2023-04-23T00:06:48.419Z,3.81
2023-04-23T00:07:48.446Z,3.40
2023-04-23T00:08:48.461Z,3.51
2023-04-23T00:09:48.483Z,3.62
2023-04-23T00:10:48.561Z,3.97
2023-04-23T00:11:48.618Z,3.78
2023-04-23T00:12:48.663Z,4.28
2023-04-23T00:13:48.601Z,3.42
2023-04-23T00:14:48.622Z,3.80
2023-04-23T00:15:48.642Z,3.79
2023-04-23T00:16:48.670Z,3.74
2023-04-23T00:17:48.766Z,3.41
2023-04-23T00:18:48.801Z,3.23
2023-04-23T00:19:48.723Z,3.18
2023-04-23T00:20:48.730Z,3.50
2023-04-23T00:21:48.759Z,3.57
2023-04-23T00:22:48.772Z,3.46
2023-04-23T00:23:48.844Z,3.42
2023-04-23T00:24:49.693Z,3.09
2023-04-23T00:25:48.882Z,3.06
2023-04-23T00:26:48.905Z,3.25
2023-04-23T00:27:48.956Z,3.57
2023-04-23T00:28:48.936Z,4.30
2023-04-23T00:29:49.005Z,4.32
2023-04-23T00:30:49.033Z,4.20
2023-04-23T00:31:49.164Z,4.07
2023-04-23T00:32:49.106Z,4.29
2023-04-23T00:33:49.083Z,4.02
2023-04-23T00:34:49.155Z,3.95
2023-04-23T00:35:49.168Z,3.86
2023-04-23T00:36:49.185Z,3.34
2023-04-23T00:37:49.215Z,3.55
2023-04-23T00:38:49.220Z,3.84
2023-04-23T00:39:49.294Z,3.71
2023-04-23T00:40:49.316Z,3.64
2023-04-23T00:41:49.332Z,3.76
2023-04-23T00:42:49.399Z,3.55
2023-04-23T00:43:49.430Z,3.82
2023-04-23T00:44:49.470Z,3.60
2023-04-23T00:45:49.567Z,2.92
2023-04-23T00:46:49.579Z,3.44
2023-04-23T00:47:49.633Z,3.59
2023-04-23T00:48:49.672Z,3.43
2023-04-23T00:49:49.744Z,3.19
2023-04-23T00:50:49.752Z,3.99
2023-04-23T00:51:57.345Z,4.25
2023-04-23T00:52:50.198Z,3.81
2023-04-23T00:53:49.760Z,3.66
2023-04-23T00:54:49.774Z,3.60
2023-04-23T00:55:49.744Z,3.49
2023-04-23T00:56:49.772Z,3.50
2023-04-23T00:57:49.748Z,3.48
2023-04-23T00:58:49.757Z,3.59
2023-04-23T00:59:49.727Z,3.88
2023-04-23T01:00:49.760Z,3.11
2023-04-23T01:01:49.709Z,3.60
2023-04-23T01:02:49.889Z,3.40
2023-04-23T01:03:49.811Z,3.65
2023-04-23T01:04:49.708Z,3.43
2023-04-23T01:05:49.679Z,3.78
2023-04-23T01:06:49.696Z,4.30
2023-04-23T01:07:49.663Z,4.04
2023-04-23T01:08:49.682Z,4.58
2023-04-23T01:09:49.650Z,4.16
2023-04-23T01:10:49.668Z,3.74
2023-04-23T01:11:49.647Z,4.02
2023-04-23T01:12:51.251Z,3.84
2023-04-23T01:13:49.625Z,4.42
2023-04-23T01:14:49.644Z,4.13
2023-04-23T01:15:49.614Z,4.04
2023-04-23T01:16:49.674Z,4.80
2023-04-23T01:17:49.693Z,4.59
2023-04-23T01:18:49.716Z,4.91
2023-04-23T01:19:49.754Z,4.68
2023-04-23T01:20:49.817Z,4.70
2023-04-23T01:21:49.842Z,4.15
2023-04-23T01:22:49.849Z,5.29
2023-04-23T01:23:49.857Z,4.57
2023-04-23T01:24:49.873Z,3.99
2023-04-23T01:25:49.900Z,4.51
2023-04-23T01:26:49.973Z,5.31
2023-04-23T01:27:50.035Z,5.08
2023-04-23T01:28:50.065Z,4.86
2023-04-23T01:29:50.079Z,4.74
2023-04-23T01:30:50.163Z,4.07
2023-04-23T01:31:50.165Z,4.85
2023-04-23T01:32:50.223Z,4.51
2023-04-23T01:33:50.225Z,4.66
2023-04-23T01:34:50.258Z,4.34
2023-04-23T01:35:50.290Z,4.16
2023-04-23T01:36:50.306Z,4.73
2023-04-23T01:37:50.367Z,4.84
2023-04-23T01:38:50.372Z,4.23
2023-04-23T01:39:50.394Z,3.81
2023-04-23T01:40:50.412Z,4.39
2023-04-23T01:41:50.435Z,5.00
2023-04-23T01:42:50.464Z,5.08
2023-04-23T01:43:50.480Z,4.34
2023-04-23T01:44:50.549Z,4.39
2023-04-23T01:45:50.585Z,4.67
2023-04-23T01:46:50.584Z,4.58
2023-04-23T01:47:50.680Z,4.66
2023-04-23T01:48:50.617Z,4.59
2023-04-23T01:49:50.641Z,4.70
2023-04-23T01:50:50.707Z,5.05
2023-04-23T01:51:50.726Z,4.08
2023-04-23T01:52:52.782Z,4.45
2023-04-23T01:53:50.762Z,5.21
2023-04-23T01:54:50.769Z,5.55
2023-04-23T01:55:50.782Z,4.48
2023-04-23T01:56:50.803Z,4.14
2023-04-23T01:57:50.842Z,4.07
2023-04-23T01:58:50.811Z,3.94
2023-04-23T01:59:50.878Z,4.18
2023-04-23T02:00:50.972Z,4.12
2023-04-23T02:01:50.963Z,4.95
2023-04-23T02:02:51.184Z,5.20
2023-04-23T02:03:51.155Z,4.50
2023-04-23T02:04:51.059Z,4.75
2023-04-23T02:05:51.072Z,5.29
2023-04-23T02:06:51.096Z,5.19
2023-04-23T02:07:51.225Z,5.18
2023-04-23T02:08:51.180Z,5.45
2023-04-23T02:09:51.202Z,5.73
2023-04-23T02:10:51.245Z,5.71
2023-04-23T02:11:51.259Z,5.79
2023-04-23T02:12:51.305Z,5.16
2023-04-23T02:13:51.381Z,4.79
2023-04-23T02:14:51.349Z,4.75
2023-04-23T02:15:51.407Z,5.86
2023-04-23T02:16:51.389Z,5.35
2023-04-23T02:17:51.446Z,5.48
2023-04-23T02:18:51.483Z,5.48
2023-04-23T02:19:51.495Z,5.43
2023-04-23T02:20:51.508Z,5.20
2023-04-23T02:21:51.532Z,4.94
2023-04-23T02:22:51.547Z,5.36
2023-04-23T02:23:51.613Z,5.75
2023-04-23T02:24:51.633Z,5.62
2023-04-23T02:25:51.678Z,5.27
2023-04-23T02:26:51.721Z,4.27
2023-04-23T02:27:51.787Z,5.74
2023-04-23T02:28:51.860Z,5.41
2023-04-23T02:29:51.856Z,4.94
2023-04-23T02:30:51.852Z,6.70
2023-04-23T02:31:52.037Z,6.63
2023-04-23T02:32:52.014Z,6.37
2023-04-23T02:33:52.001Z,7.06
2023-04-23T02:34:52.070Z,6.09
2023-04-23T02:35:52.146Z,5.96
2023-04-23T02:36:52.189Z,5.40
2023-04-23T02:37:52.256Z,5.12
2023-04-23T02:38:52.276Z,4.43
2023-04-23T02:39:52.299Z,4.53
2023-04-23T02:40:52.304Z,4.21
2023-04-23T02:41:52.319Z,4.93
2023-04-23T02:42:52.324Z,4.87
2023-04-23T02:43:52.406Z,5.55
2023-04-23T02:44:52.423Z,5.06
2023-04-23T02:45:52.498Z,4.95
2023-04-23T02:46:52.622Z,4.98
2023-04-23T02:47:52.670Z,4.97
2023-04-23T02:48:52.644Z,4.14
2023-04-23T02:49:52.688Z,5.03
2023-04-23T02:50:52.680Z,4.87
2023-04-23T02:51:52.710Z,5.25
2023-04-23T02:52:52.798Z,5.36
2023-04-23T02:53:52.745Z,5.35
2023-04-23T02:54:52.812Z,5.50
2023-04-23T02:55:52.840Z,4.58
2023-04-23T02:56:53.007Z,4.62
2023-04-23T02:57:52.914Z,4.76
2023-04-23T02:58:53.009Z,4.28
2023-04-23T02:59:53.048Z,3.31
2023-04-23T03:00:53.091Z,4.05
2023-04-23T03:01:53.215Z,3.97
2023-04-23T03:02:53.460Z,3.60
2023-04-23T03:03:53.418Z,3.53
2023-04-23T03:04:53.303Z,3.97
2023-04-23T03:05:53.316Z,4.31
2023-04-23T03:06:53.377Z,3.63
2023-04-23T03:07:53.411Z,3.96
2023-04-23T03:08:53.400Z,3.80
2023-04-23T03:09:53.475Z,4.16
2023-04-23T03:10:53.484Z,3.95
2023-04-23T03:11:53.501Z,3.65
2023-04-23T03:12:53.494Z,3.93
2023-04-23T03:13:53.518Z,4.14
2023-04-23T03:14:53.593Z,3.83
2023-04-23T03:15:53.591Z,4.47
2023-04-23T03:16:53.762Z,3.84
2023-04-23T03:17:53.759Z,4.61
2023-04-23T03:18:53.729Z,4.13
2023-04-23T03:19:53.744Z,3.95
2023-04-23T03:20:53.806Z,4.00
2023-04-23T03:21:53.775Z,3.38
2023-04-23T03:22:53.781Z,3.85
2023-04-23T03:23:53.789Z,3.89
2023-04-23T03:24:53.813Z,3.76
2023-04-23T03:25:53.836Z,4.13
2023-04-23T03:26:53.868Z,4.21
2023-04-23T03:27:53.988Z,4.13
2023-04-23T03:28:53.946Z,4.10
2023-04-23T03:29:53.965Z,4.31
2023-04-23T03:30:54.032Z,4.95
2023-04-23T03:31:54.051Z,5.15
2023-04-23T03:32:54.112Z,4.63
2023-04-23T03:33:54.091Z,4.30
2023-04-23T03:34:54.156Z,5.44
2023-04-23T03:35:54.229Z,5.10
2023-04-23T03:36:54.250Z,5.74
2023-04-23T03:37:54.839Z,5.41
2023-04-23T03:38:54.298Z,5.77
2023-04-23T03:39:54.301Z,6.11
2023-04-23T03:40:54.319Z,5.77
2023-04-23T03:41:54.346Z,5.49
2023-04-23T03:42:54.417Z,5.30
2023-04-23T03:43:54.485Z,5.33
2023-04-23T03:44:54.522Z,4.71
2023-04-23T03:45:54.511Z,5.73
2023-04-23T03:46:54.527Z,5.05
2023-04-23T03:47:54.637Z,5.75
2023-04-23T03:48:54.622Z,4.89
2023-04-23T03:49:54.634Z,5.39
2023-04-23T03:50:54.662Z,5.29
2023-04-23T03:51:54.722Z,5.24
2023-04-23T03:52:54.802Z,5.59
2023-04-23T03:53:54.813Z,5.41
2023-04-23T03:54:54.886Z,4.84
2023-04-23T03:55:54.933Z,4.65
2023-04-23T03:56:55.004Z,5.00
2023-04-23T03:57:55.255Z,5.55
2023-04-23T03:58:55.061Z,5.07
2023-04-23T03:59:55.055Z,4.45
2023-04-23T04:00:55.113Z,4.13
2023-04-23T04:01:55.181Z,5.01
2023-04-23T04:02:55.433Z,4.25
2023-04-23T04:03:55.505Z,4.73
2023-04-23T04:04:55.446Z,5.04
2023-04-23T04:05:55.385Z,5.03
2023-04-23T04:06:55.378Z,5.19
2023-04-23T04:07:55.439Z,4.99
2023-04-23T04:08:55.450Z,5.62
2023-04-23T04:09:55.527Z,5.12
2023-04-23T04:10:55.411Z,5.50
2023-04-23T04:11:55.468Z,5.64
2023-04-23T04:12:55.505Z,5.82
2023-04-23T04:13:55.508Z,5.39
2023-04-23T04:14:55.512Z,6.60
2023-04-23T04:15:55.543Z,5.64
2023-04-23T04:16:55.559Z,6.19
2023-04-23T04:17:55.595Z,6.50
2023-04-23T04:18:56.724Z,6.64
2023-04-23T04:19:55.533Z,6.52
2023-04-23T04:20:55.523Z,7.02
2023-04-23T04:21:55.588Z,7.21
2023-04-23T04:22:55.628Z,6.43
2023-04-23T04:23:55.688Z,7.09
2023-04-23T04:24:55.757Z,7.65
2023-04-23T04:25:55.746Z,6.55
2023-04-23T04:26:55.736Z,6.36
2023-04-23T04:27:55.801Z,5.96
2023-04-23T04:28:55.849Z,7.37
2023-04-23T04:29:55.793Z,6.75
2023-04-23T04:30:55.813Z,6.22
2023-04-23T04:31:55.952Z,7.26
2023-04-23T04:32:55.901Z,7.23
2023-04-23T04:33:55.831Z,6.94
2023-04-23T04:34:55.903Z,6.92
2023-04-23T04:35:55.902Z,5.72
2023-04-23T04:36:55.930Z,7.24
2023-04-23T04:37:55.961Z,7.07
2023-04-23T04:38:56.034Z,6.21
2023-04-23T04:39:56.034Z,6.46
2023-04-23T04:40:56.065Z,6.69
2023-04-23T04:41:56.124Z,6.60
2023-04-23T04:42:56.091Z,7.05
2023-04-23T04:43:56.169Z,7.99
2023-04-23T04:44:56.177Z,6.70
2023-04-23T04:45:56.202Z,7.80
2023-04-23T04:46:56.211Z,8.36
2023-04-23T04:47:56.320Z,6.94
2023-04-23T04:48:56.213Z,6.68
2023-04-23T04:49:56.323Z,6.73
2023-04-23T04:50:56.350Z,7.02
2023-04-23T04:51:56.371Z,7.00
2023-04-23T04:52:56.413Z,6.48
2023-04-23T04:53:56.447Z,7.29
2023-04-23T04:54:56.420Z,6.88
2023-04-23T04:55:56.431Z,6.87
2023-04-23T04:56:56.494Z,5.70
2023-04-23T04:57:56.565Z,7.31
2023-04-23T04:58:56.714Z,6.94
2023-04-23T04:59:56.619Z,7.02
2023-04-23T05:00:56.747Z,6.26
2023-04-23T05:01:56.815Z,6.51
2023-04-23T05:02:56.878Z,5.89
2023-04-23T05:03:56.936Z,7.18
2023-04-23T05:04:56.851Z,6.76
2023-04-23T05:05:56.937Z,6.31
2023-04-23T05:06:56.928Z,6.11
2023-04-23T05:07:56.967Z,6.51
2023-04-23T05:08:56.984Z,6.54
2023-04-23T05:09:57.015Z,7.08
2023-04-23T05:10:57.040Z,8.06
2023-04-23T05:11:57.078Z,7.15
2023-04-23T05:12:57.176Z,7.58
2023-04-23T05:13:57.161Z,7.14
2023-04-23T05:14:57.198Z,7.04
2023-04-23T05:15:57.282Z,7.76
2023-04-23T05:16:57.331Z,6.64
2023-04-23T05:17:57.342Z,7.53
2023-04-23T05:18:57.328Z,7.40
2023-04-23T05:19:57.360Z,7.14
2023-04-23T05:20:57.417Z,6.66
2023-04-23T05:21:57.499Z,8.86
2023-04-23T05:22:57.541Z,7.84
2023-04-23T05:23:57.625Z,7.98
2023-04-23T05:24:57.624Z,7.58
2023-04-23T05:25:57.657Z,7.64
2023-04-23T05:26:57.717Z,7.68
2023-04-23T05:27:57.731Z,7.69
2023-04-23T05:28:57.799Z,6.93
2023-04-23T05:29:57.841Z,6.72
2023-04-23T05:30:57.915Z,5.98
2023-04-23T05:31:57.931Z,6.40
2023-04-23T05:32:58.102Z,6.69
2023-04-23T05:33:58.062Z,6.74
2023-04-23T05:34:58.082Z,6.79
2023-04-23T05:35:58.138Z,6.18
2023-04-23T05:36:58.157Z,5.82
2023-04-23T05:37:58.222Z,6.64
2023-04-23T05:38:58.294Z,5.81
2023-04-23T05:39:58.374Z,6.57
2023-04-23T05:40:58.295Z,5.64
2023-04-23T05:41:58.303Z,6.78
2023-04-23T05:42:58.330Z,6.62
2023-04-23T05:43:58.381Z,5.74
2023-04-23T05:44:58.361Z,6.04
2023-04-23T05:45:58.435Z,6.86
2023-04-23T05:46:58.504Z,6.19
2023-04-23T05:47:58.520Z,6.69
2023-04-23T05:48:58.530Z,7.55
2023-04-23T05:49:58.546Z,6.95
2023-04-23T05:50:58.573Z,6.54
2023-04-23T05:51:58.582Z,6.78
2023-04-23T05:52:58.646Z,6.92
2023-04-23T05:53:58.714Z,6.97
2023-04-23T05:54:58.637Z,6.60
2023-04-23T05:55:58.709Z,7.06
2023-04-23T05:56:58.803Z,6.88
2023-04-23T05:57:58.744Z,7.00
2023-04-23T05:58:58.812Z,6.96
2023-04-23T05:59:58.778Z,7.69
2023-04-23T06:00:58.799Z,7.06
2023-04-23T06:01:58.860Z,7.09
2023-04-23T06:02:58.925Z,7.23
2023-04-23T06:03:59.100Z,7.20
2023-04-23T06:04:59.103Z,7.05
2023-04-23T06:05:58.990Z,7.19
2023-04-23T06:06:58.924Z,7.31
2023-04-23T06:07:59.280Z,6.87
2023-04-23T06:08:58.947Z,7.00
2023-04-23T06:09:58.911Z,6.28
2023-04-23T06:10:58.934Z,8.28
2023-04-23T06:11:58.899Z,7.70
2023-04-23T06:12:58.948Z,6.34
2023-04-23T06:13:58.946Z,6.72
2023-04-23T06:14:58.959Z,7.16
2023-04-23T06:15:58.945Z,6.65
2023-04-23T06:16:58.957Z,7.15
2023-04-23T06:17:59.006Z,7.39
2023-04-23T06:18:59.297Z,7.50
2023-04-23T06:19:58.991Z,6.71
2023-04-23T06:20:59.031Z,6.65
2023-04-23T06:21:59.026Z,7.31
2023-04-23T06:22:59.101Z,7.98
2023-04-23T06:23:59.129Z,7.18
2023-04-23T06:24:59.107Z,6.50
2023-04-23T06:25:59.162Z,6.26
2023-04-23T06:26:59.168Z,6.97
2023-04-23T06:27:59.248Z,7.51
2023-04-23T06:28:59.275Z,7.11
2023-04-23T06:29:59.237Z,6.91
2023-04-23T06:30:59.270Z,7.29
2023-04-23T06:31:59.277Z,6.67
2023-04-23T06:32:59.455Z,6.90
2023-04-23T06:33:59.357Z,7.09
2023-04-23T06:35:01.905Z,7.05
2023-04-23T06:35:59.408Z,7.28
2023-04-23T06:36:59.353Z,7.50
2023-04-23T06:37:59.395Z,7.17
2023-04-23T06:38:59.453Z,7.69
2023-04-23T06:39:59.374Z,7.95
2023-04-23T06:40:59.348Z,7.58
2023-04-23T06:41:59.356Z,7.51
2023-04-23T06:42:59.436Z,7.19
2023-04-23T06:43:59.331Z,5.98
2023-04-23T06:44:59.326Z,6.97
2023-04-23T06:45:59.330Z,6.98
2023-04-23T06:46:59.355Z,6.88
2023-04-23T06:47:59.311Z,8.11
2023-04-23T06:48:59.275Z,7.51
2023-04-23T06:49:59.304Z,6.46
2023-04-23T06:50:59.265Z,6.45
2023-04-23T06:51:59.283Z,7.19
2023-04-23T06:52:59.362Z,7.27
2023-04-23T06:53:59.269Z,7.37
2023-04-23T06:54:59.277Z,6.78
2023-04-23T06:55:59.244Z,6.91
2023-04-23T06:56:59.276Z,7.51
2023-04-23T06:57:59.245Z,7.67
2023-04-23T06:58:59.254Z,7.34
2023-04-23T06:59:59.292Z,7.90
2023-04-23T07:00:59.225Z,7.29
2023-04-23T07:01:59.245Z,7.82
2023-04-23T07:02:59.290Z,7.81
2023-04-23T07:03:59.285Z,8.63
2023-04-23T07:04:59.211Z,8.71
2023-04-23T07:05:59.221Z,10.79
2023-04-23T07:06:59.166Z,10.26
2023-04-23T07:07:59.175Z,9.75
2023-04-23T07:08:59.198Z,9.61
2023-04-23T07:09:59.166Z,9.63
2023-04-23T07:10:59.190Z,8.94
2023-04-23T07:11:59.151Z,8.56
2023-04-23T07:12:59.174Z,7.76
2023-04-23T07:13:59.147Z,8.50
2023-04-23T07:14:59.237Z,7.59
2023-04-23T07:15:59.125Z,6.55
2023-04-23T07:16:59.127Z,6.97
2023-04-23T07:17:59.145Z,7.38
2023-04-23T07:18:59.129Z,7.06
2023-04-23T07:19:59.096Z,7.48
2023-04-23T07:20:59.068Z,7.89
2023-04-23T07:21:59.093Z,7.97
2023-04-23T07:22:59.118Z,7.47
2023-04-23T07:23:59.073Z,7.29
2023-04-23T07:24:59.045Z,8.08
2023-04-23T07:25:59.078Z,7.59
2023-04-23T07:26:59.083Z,7.28
2023-04-23T07:27:59.055Z,6.95
2023-04-23T07:28:59.842Z,6.85
2023-04-23T07:29:59.053Z,7.07
2023-04-23T07:30:59.040Z,7.64
2023-04-23T07:31:59.140Z,6.94
2023-04-23T07:32:59.100Z,7.37
2023-04-23T07:33:59.125Z,7.09
2023-04-23T07:34:59.130Z,7.25
2023-04-23T07:35:59.196Z,6.71
2023-04-23T07:36:59.269Z,7.33
2023-04-23T07:37:59.395Z,6.38
2023-04-23T07:38:59.365Z,5.76
2023-04-23T07:40:00.764Z,6.56
2023-04-23T07:40:59.369Z,6.23
2023-04-23T07:41:59.413Z,6.04
2023-04-23T07:42:59.667Z,6.24
2023-04-23T07:43:59.516Z,6.08
2023-04-23T07:44:59.522Z,5.57
2023-04-23T07:45:59.572Z,6.08
2023-04-23T07:46:59.620Z,6.39
2023-04-23T07:47:59.686Z,6.53
2023-04-23T07:48:59.700Z,6.18
2023-04-23T07:49:59.732Z,6.32
2023-04-23T07:50:59.734Z,5.97
2023-04-23T07:51:59.805Z,5.85
2023-04-23T07:52:59.899Z,5.66
2023-04-23T07:53:59.908Z,5.88
2023-04-23T07:54:59.910Z,5.91
2023-04-23T07:55:59.943Z,5.69
2023-04-23T07:57:00.007Z,5.29
2023-04-23T07:58:00.051Z,5.42
2023-04-23T07:59:00.088Z,5.99
2023-04-23T08:00:00.175Z,5.47
2023-04-23T08:01:00.243Z,6.36
2023-04-23T08:02:00.194Z,5.34
2023-04-23T08:03:00.401Z,5.45
2023-04-23T08:04:00.484Z,5.62
2023-04-23T08:05:00.490Z,5.80
2023-04-23T08:06:00.379Z,6.25
2023-04-23T08:07:00.343Z,6.20
2023-04-23T08:08:00.391Z,6.10
2023-04-23T08:09:00.880Z,6.41
2023-04-23T08:10:00.534Z,5.56
2023-04-23T08:11:00.485Z,5.92
2023-04-23T08:12:00.542Z,5.14
2023-04-23T08:13:00.574Z,5.30
2023-04-23T08:14:00.581Z,5.58
2023-04-23T08:15:00.572Z,4.69
2023-04-23T08:16:00.608Z,5.33
2023-04-23T08:17:00.608Z,5.01
2023-04-23T08:18:00.665Z,4.30
2023-04-23T08:20:00.618Z,4.99
2023-04-23T08:21:00.593Z,5.51
2023-04-23T08:22:00.591Z,4.94
2023-04-23T08:23:00.580Z,5.45
2023-04-23T08:24:00.708Z,5.47
2023-04-23T08:25:00.672Z,5.28
2023-04-23T08:26:00.635Z,5.51
2023-04-23T08:27:00.529Z,4.86
2023-04-23T08:28:00.557Z,5.48
2023-04-23T08:29:00.665Z,4.56
2023-04-23T08:30:00.514Z,4.77
2023-04-23T08:31:00.551Z,4.36
2023-04-23T08:32:00.536Z,5.23
2023-04-23T08:33:00.515Z,5.57
2023-04-23T08:34:00.564Z,4.81
2023-04-23T08:35:00.534Z,4.80
2023-04-23T08:36:00.514Z,5.18
2023-04-23T08:37:00.467Z,5.22
2023-04-23T08:38:00.442Z,5.30
2023-04-23T08:39:00.829Z,5.12
2023-04-23T08:40:00.478Z,5.30
2023-04-23T08:41:00.545Z,4.71
2023-04-23T08:42:00.445Z,4.78
2023-04-23T08:43:00.484Z,4.82
2023-04-23T08:44:00.446Z,4.00
2023-04-23T08:45:00.490Z,4.80
2023-04-23T08:46:00.495Z,4.49
2023-04-23T08:47:00.480Z,4.65
2023-04-23T08:48:02.127Z,5.15
2023-04-23T08:49:00.393Z,4.46
2023-04-23T08:50:00.427Z,4.14
2023-04-23T08:51:00.385Z,4.85
2023-04-23T08:52:00.390Z,4.86
2023-04-23T08:53:00.429Z,4.51
2023-04-23T08:54:00.539Z,4.54
2023-04-23T08:55:00.504Z,4.51
2023-04-23T08:56:00.528Z,4.94
2023-04-23T08:57:00.530Z,5.18
2023-04-23T08:58:00.607Z,4.57
2023-04-23T08:59:00.685Z,4.98
2023-04-23T09:00:00.645Z,4.77
2023-04-23T09:01:00.763Z,4.69
2023-04-23T09:02:00.699Z,4.14
2023-04-23T09:03:00.780Z,4.01
2023-04-23T09:04:00.896Z,4.24
2023-04-23T09:05:00.910Z,4.12
2023-04-23T09:06:00.854Z,4.59
2023-04-23T09:07:00.889Z,5.03
2023-04-23T09:08:00.956Z,4.74
2023-04-23T09:09:01.104Z,4.44
2023-04-23T09:10:01.041Z,4.48
2023-04-23T09:11:01.060Z,4.00
2023-04-23T09:12:01.146Z,4.18
2023-04-23T09:13:01.237Z,4.53
2023-04-23T09:14:01.211Z,4.38
2023-04-23T09:15:01.276Z,4.64
2023-04-23T09:16:01.369Z,4.40
2023-04-23T09:17:01.428Z,3.53
2023-04-23T09:18:01.496Z,3.87
2023-04-23T09:19:01.502Z,3.72
2023-04-23T09:20:01.489Z,3.62
2023-04-23T09:21:01.562Z,3.65
2023-04-23T09:22:01.617Z,3.16
2023-04-23T09:23:01.647Z,4.36
2023-04-23T09:24:01.618Z,4.01
2023-04-23T09:25:01.663Z,3.04
2023-04-23T09:26:01.654Z,3.63
2023-04-23T09:27:01.714Z,3.61
2023-04-23T09:28:01.792Z,4.57
2023-04-23T09:29:01.808Z,3.54
2023-04-23T09:30:01.820Z,4.75
2023-04-23T09:31:01.849Z,3.82
2023-04-23T09:32:02.036Z,4.12
2023-04-23T09:33:01.904Z,3.63
2023-04-23T09:34:01.891Z,3.84
2023-04-23T09:35:01.893Z,3.53
2023-04-23T09:36:01.933Z,3.73
2023-04-23T09:37:01.943Z,3.07
2023-04-23T09:38:01.962Z,3.28
2023-04-23T09:39:02.042Z,3.75
2023-04-23T09:40:02.114Z,3.48
2023-04-23T09:41:02.131Z,3.56
2023-04-23T09:42:02.086Z,3.34
2023-04-23T09:43:02.152Z,3.76
2023-04-23T09:44:02.180Z,3.62
2023-04-23T09:45:02.250Z,3.66
2023-04-23T09:46:02.398Z,3.32
2023-04-23T09:47:02.347Z,3.26
2023-04-23T09:48:02.536Z,3.65
2023-04-23T09:49:02.456Z,3.67
2023-04-23T09:50:02.395Z,3.88
2023-04-23T09:51:02.419Z,3.06
2023-04-23T09:52:02.443Z,3.72
2023-04-23T09:53:02.460Z,3.74
2023-04-23T09:54:02.609Z,3.85
2023-04-23T09:55:02.617Z,3.54
2023-04-23T09:56:02.627Z,3.93
2023-04-23T09:57:02.687Z,4.13
2023-04-23T09:58:02.652Z,3.07
2023-04-23T09:59:02.673Z,3.95
2023-04-23T10:00:13.500Z,3.68
2023-04-23T10:01:03.775Z,3.77
2023-04-23T10:02:02.718Z,3.48
2023-04-23T10:03:02.909Z,3.86
2023-04-23T10:04:02.889Z,3.71
2023-04-23T10:05:21.443Z,3.04
2023-04-23T10:06:04.012Z,3.47
2023-04-23T10:08:02.736Z,3.49
2023-04-23T10:09:02.700Z,3.10
2023-04-23T10:10:03.398Z,3.44
2023-04-23T10:11:14.172Z,3.57
2023-04-23T10:12:03.728Z,4.04
2023-04-23T10:13:02.671Z,3.41
2023-04-23T10:14:02.942Z,3.86
2023-04-23T10:15:02.631Z,3.98
2023-04-23T10:16:14.502Z,3.52
2023-04-23T10:17:03.637Z,3.28
2023-04-23T10:18:02.668Z,4.06
2023-04-23T10:19:02.637Z,3.50
2023-04-23T10:20:02.640Z,3.28
2023-04-23T10:21:02.615Z,3.26
2023-04-23T10:22:12.219Z,3.95
2023-04-23T10:23:03.576Z,3.40
2023-04-23T10:24:02.578Z,3.79
2023-04-23T10:25:02.555Z,3.63
2023-04-23T10:26:02.552Z,3.95
2023-04-23T10:27:02.533Z,3.59
2023-04-23T10:28:02.559Z,4.57
2023-04-23T10:29:02.538Z,3.38
2023-04-23T10:30:04.218Z,3.11
2023-04-23T10:31:02.557Z,4.23
2023-04-23T10:32:02.559Z,3.80
2023-04-23T10:33:02.600Z,3.32
2023-04-23T10:34:02.564Z,3.77
2023-04-23T10:35:02.525Z,3.57
2023-04-23T10:36:02.497Z,3.69
2023-04-23T10:37:02.507Z,3.83
2023-04-23T10:38:02.474Z,3.91
2023-04-23T10:39:02.504Z,3.71
2023-04-23T10:40:02.470Z,4.02
2023-04-23T10:41:02.432Z,3.88
2023-04-23T10:42:02.508Z,3.64
2023-04-23T10:43:02.416Z,3.33
2023-04-23T10:44:02.446Z,3.39
2023-04-23T10:45:13.143Z,3.42
2023-04-23T10:46:03.433Z,4.19
2023-04-23T10:47:02.519Z,4.18
2023-04-23T10:48:02.464Z,3.25
2023-04-23T10:49:02.422Z,3.13
2023-04-23T10:50:02.396Z,3.28
2023-04-23T10:51:25.060Z,2.90
2023-04-23T10:52:17.673Z,3.19
2023-04-23T10:53:04.905Z,3.11
2023-04-23T10:54:02.620Z,3.10
2023-04-23T10:55:02.717Z,3.81
2023-04-23T10:56:02.616Z,3.63
2023-04-23T10:57:02.684Z,3.42
2023-04-23T10:58:03.269Z,2.86
2023-04-23T10:59:02.775Z,3.20
2023-04-23T11:00:02.901Z,2.89
2023-04-23T11:01:02.911Z,3.31
2023-04-23T11:02:02.959Z,3.24
2023-04-23T11:03:03.114Z,3.10
2023-04-23T11:04:03.148Z,3.15
2023-04-23T11:05:03.260Z,3.40
2023-04-23T11:06:03.192Z,3.17
2023-04-23T11:07:03.237Z,3.92
2023-04-23T11:08:11.064Z,3.25
2023-04-23T11:09:04.441Z,3.72
2023-04-23T11:10:03.213Z,3.38
2023-04-23T11:11:03.257Z,3.43
2023-04-23T11:12:03.187Z,3.80
2023-04-23T11:13:03.254Z,4.13
2023-04-23T11:14:03.215Z,3.68
2023-04-23T11:15:03.220Z,2.98
2023-04-23T11:16:03.152Z,3.56
2023-04-23T11:17:03.224Z,3.91
2023-04-23T11:18:03.177Z,4.25
2023-04-23T11:19:03.325Z,3.94
2023-04-23T11:20:03.313Z,3.58
2023-04-23T11:21:03.355Z,3.21
2023-04-23T11:22:03.374Z,3.59
2023-04-23T11:23:03.463Z,2.90
2023-04-23T11:24:03.537Z,3.66
2023-04-23T11:25:03.536Z,3.76
2023-04-23T11:26:03.555Z,4.29
2023-04-23T11:27:03.551Z,4.44
2023-04-23T11:28:03.591Z,3.57
2023-04-23T11:29:03.652Z,3.48
2023-04-23T11:30:03.661Z,3.70
2023-04-23T11:31:03.689Z,3.03
2023-04-23T11:32:04.212Z,3.84
2023-04-23T11:33:03.826Z,3.39
2023-04-23T11:34:03.832Z,3.29
2023-04-23T11:35:03.804Z,3.61
2023-04-23T11:36:03.873Z,4.05
2023-04-23T11:37:03.907Z,4.01
2023-04-23T11:38:03.931Z,4.01
2023-04-23T11:39:03.981Z,3.26
2023-04-23T11:40:04.011Z,3.54
2023-04-23T11:41:04.024Z,3.94
2023-04-23T11:42:04.059Z,3.32
2023-04-23T11:43:04.062Z,3.22
2023-04-23T11:44:04.122Z,3.19
2023-04-23T11:45:04.093Z,3.54
2023-04-23T11:46:04.173Z,4.19
2023-04-23T11:47:04.139Z,3.89
2023-04-23T11:48:04.250Z,3.28
2023-04-23T11:49:04.168Z,3.05
2023-04-23T11:50:04.138Z,3.70
2023-04-23T11:51:04.201Z,3.35
2023-04-23T11:52:04.253Z,3.90
2023-04-23T11:53:04.298Z,3.49
2023-04-23T11:54:04.376Z,3.65
2023-04-23T11:55:04.450Z,3.77
2023-04-23T11:56:04.476Z,3.67
2023-04-23T11:57:04.537Z,3.55
2023-04-23T11:58:04.600Z,3.71
2023-04-23T11:59:04.626Z,3.71
2023-04-23T12:00:04.677Z,3.66
2023-04-23T12:01:04.711Z,3.68
2023-04-23T12:02:04.904Z,3.31
2023-04-23T12:03:04.935Z,3.34
2023-04-23T12:04:05.032Z,3.32
2023-04-23T12:05:04.852Z,3.62
2023-04-23T12:06:04.848Z,3.38
2023-04-23T12:07:12.957Z,3.46
2023-04-23T12:08:05.909Z,3.77
2023-04-23T12:09:04.924Z,3.68
2023-04-23T12:10:04.909Z,3.68
2023-04-23T12:11:04.890Z,2.52
2023-04-23T12:12:04.869Z,2.50
2023-04-23T12:13:04.869Z,2.84
2023-04-23T12:14:04.854Z,3.11
2023-04-23T12:15:04.859Z,3.35
2023-04-23T12:16:04.905Z,3.48
2023-04-23T12:17:04.840Z,3.18
2023-04-23T12:18:04.856Z,3.46
2023-04-23T12:19:04.840Z,3.18
2023-04-23T12:20:04.860Z,3.17
2023-04-23T12:21:04.807Z,3.87
2023-04-23T12:22:04.836Z,4.08
2023-04-23T12:23:04.798Z,3.65
2023-04-23T12:24:04.774Z,3.65
2023-04-23T12:25:04.840Z,3.07
2023-04-23T12:26:04.859Z,3.25
2023-04-23T12:27:04.903Z,4.11
2023-04-23T12:28:04.926Z,3.40
2023-04-23T12:29:04.925Z,3.79
2023-04-23T12:30:07.241Z,3.67
2023-04-23T12:31:05.028Z,3.77
2023-04-23T12:32:05.022Z,2.98
2023-04-23T12:33:04.996Z,3.10
2023-04-23T12:34:05.027Z,3.24
2023-04-23T12:35:05.434Z,3.04
2023-04-23T12:36:05.058Z,3.58
2023-04-23T12:37:05.060Z,3.10
2023-04-23T12:38:05.044Z,3.62
2023-04-23T12:39:05.107Z,4.25
2023-04-23T12:40:05.135Z,3.44
2023-04-23T12:41:05.145Z,3.11
2023-04-23T12:42:05.377Z,3.07
2023-04-23T12:43:05.222Z,3.87
2023-04-23T12:44:05.241Z,3.74
2023-04-23T12:45:05.293Z,3.39
2023-04-23T12:46:05.358Z,3.92
2023-04-23T12:47:05.490Z,3.58
2023-04-23T12:48:05.444Z,3.96
2023-04-23T12:49:05.492Z,3.67
2023-04-23T12:50:05.538Z,3.66
2023-04-23T12:51:05.594Z,3.23
2023-04-23T12:52:05.669Z,3.46
2023-04-23T12:53:06.435Z,3.85
2023-04-23T12:54:05.739Z,3.67
2023-04-23T12:55:05.977Z,3.33
2023-04-23T12:56:05.777Z,3.48
2023-04-23T12:57:05.801Z,2.80
2023-04-23T12:58:05.771Z,3.40
2023-04-23T12:59:05.809Z,3.64
2023-04-23T13:00:05.861Z,2.61
2023-04-23T13:01:05.896Z,3.40
2023-04-23T13:02:06.046Z,3.36
2023-04-23T13:03:06.012Z,3.70
2023-04-23T13:04:06.008Z,3.58
2023-04-23T13:05:06.009Z,3.81
2023-04-23T13:06:06.025Z,3.81
2023-04-23T13:07:06.038Z,4.24
2023-04-23T13:08:06.064Z,3.34
2023-04-23T13:09:06.143Z,3.52
2023-04-23T13:10:06.151Z,3.64
2023-04-23T13:11:06.212Z,4.00
2023-04-23T13:12:06.244Z,3.72
2023-04-23T13:13:06.309Z,3.58
2023-04-23T13:14:06.324Z,3.33
2023-04-23T13:15:06.403Z,3.50
2023-04-23T13:16:06.450Z,3.17
2023-04-23T13:17:06.492Z,3.67
2023-04-23T13:18:06.603Z,3.48
2023-04-23T13:19:06.630Z,3.30
2023-04-23T13:20:06.654Z,3.63
2023-04-23T13:21:06.661Z,3.61